KPHT/PHT METAR and TAF weather

Enter ICAO airport designator
Station Type Date Time Source
KPHT METAR 2019/06/27 10:35 UTC NOAA

KPHT 271035Z AUTO 00000KT 7SM BKN110 19/19 A3019 RMK A01


Station Type Date Time Source
KPHT Decoded METAR 2019/06/27 10:35 UTC NOAA

Station name not available
Jun 27, 2019 - 06:35 AM EDT / 2019.06.27 1035 UTC
Wind: Calm:0
Visibility: 7 mile(s):0
Sky conditions: mostly cloudy
Temperature: 66 F (19 C)
Dew Point: 66 F (19 C)
Relative Humidity: 100%
Pressure (altimeter): 30.19 in. Hg (1022 hPa)
ob: KPHT 271035Z AUTO 00000KT 7SM BKN110 19/19 A3019 RMK A01
cycle: 10

Station Type Date Time Source
KPHT TAF UTC NOAA

Error!

Example: see airport list